Pagrindinis puslapis
METAR-TAF:

METAR-TAF

Oro uostai :

Qurayyat, Saudo Arabija

platuma: 31-24N, ilguma: 037-16E, Aukštis: 509 m

Dabartinis oras

Ataskaita buvo paskelbta 1 valandą ir 12 minutes, ne 02:00 UTC
Vėjas 20 kt iš Vakarų/Šiaurės Vakarų
Temperatūra 15°C
Drėgmė 67%
Slėgis 1015 hPa
Matomumas 10 km arba daugiau
nėra debesų žemiau 1500 m ir nėra kamuolinių lietaus debesų

METAR: OEGT 290200Z 30020KT CAVOK 15/09 Q1015 NOSIG

Laikas: 06:12 (03:12 UTC)

Prognozė

Ataskaita buvo paskelbta 4 valandos ir 12 minutes, ne 23:00 UTC
Prognozė galioja nuo 29 metu 00 UTC su 30 metu 06 UTC
Vėjas 11 kt iš Vakarų/Šiaurės Vakarų su gūsio iki 22 kt
Matomumas: 7000 m

TAF: OEGT 282300Z 2900/3006 30011G22KT 7000 NSC

Orai ataskaitas ir orų prognozės (METAR, TAF).

turimą stotys yra geltonos ir raudonos taškus žemėlapyje.

Perkelti pele per norėdami pamatyti stoties vardą.

Tada spustelėkite, norėdami matyti oro stebėjimo ir prognozės.

Norėdami pakeisti žemėlapį: spustelėkite ant žalios mygtukų su juodo kryžiaus žemyn,; žalią mygtuką su brūkšneliu, jei norite nutolinti; arba žalių rodyklių gretimoms žemėlapius.


METAR-TAF: